Time;durP1;ratioP1;P1;durP2;ratioP2;P2;SDS_P1;SDS_P2;PMS_P1;PMS_P2;Temp;Humidity;BMP_temperature;BMP_pressure;BME280_temperature;BME280_humidity;BME280_pressure;Samples;Min_cycle;Max_cycle;Signal;HPM_P1;HPM_P2
2023/11/22 00:01:14;;;;;;;16.70;9.37;;;;;;;;;;5005616;28;20171;-68
2023/11/22 00:03:39;;;;;;;22.60;11.17;;;;;;;;;;5005223;28;20203;-67
2023/11/22 00:06:05;;;;;;;21.03;10.57;;;;;;;;;;4998596;28;20266;-68
2023/11/22 00:08:30;;;;;;;21.43;10.43;;;;;;;;;;5004990;28;20175;-67
2023/11/22 00:10:55;;;;;;;17.50;9.67;;;;;;;;;;5005325;28;20175;-67
2023/11/22 00:13:20;;;;;;;17.13;10.33;;;;;;;;;;5005527;28;20225;-68
2023/11/22 00:15:45;;;;;;;20.83;10.87;;;;;;;;;;5005178;28;20194;-67
2023/11/22 00:18:11;;;;;;;20.60;10.53;;;;;;;;;;5006567;28;20245;-67
2023/11/22 00:20:36;;;;;;;18.00;10.20;;;;;;;;;;4999058;28;20228;-67
2023/11/22 00:23:03;;;;;;;17.97;9.33;;;;;;;;;;5005295;28;20198;-68
2023/11/22 00:25:28;;;;;;;17.37;9.93;;;;;;;;;;5008437;28;20175;-67
2023/11/22 00:27:53;;;;;;;14.80;9.03;;;;;;;;;;5011027;28;20175;-68
2023/11/22 00:30:18;;;;;;;20.00;9.50;;;;;;;;;;5004004;28;20635;-67
2023/11/22 00:32:44;;;;;;;15.53;9.50;;;;;;;;;;5003575;28;20676;-67
2023/11/22 00:35:09;;;;;;;17.10;9.50;;;;;;;;;;4998469;28;20249;-67
2023/11/22 00:37:34;;;;;;;20.73;10.23;;;;;;;;;;5010543;28;20183;-67
2023/11/22 00:40:00;;;;;;;18.93;10.13;;;;;;;;;;5010137;28;20178;-67
2023/11/22 00:42:27;;;;;;;18.30;9.40;;;;;;;;;;5009599;28;20235;-67
2023/11/22 00:44:52;;;;;;;20.63;10.97;;;;;;;;;;5004532;28;20297;-67
2023/11/22 00:47:17;;;;;;;18.37;10.27;;;;;;;;;;5006058;28;20183;-67
2023/11/22 00:49:42;;;;;;;17.33;9.37;;;;;;;;;;5004215;28;20175;-67
2023/11/22 00:52:08;;;;;;;17.30;9.53;;;;;;;;;;5002462;28;20179;-67
2023/11/22 00:54:33;;;;;;;15.50;8.87;;;;;;;;;;5004992;28;20217;-67
2023/11/22 00:56:59;;;;;;;17.93;10.43;;;;;;;;;;5005048;28;20175;-66
2023/11/22 00:59:26;;;;;;;17.20;10.30;;;;;;;;;;5002222;28;20258;-67
2023/11/22 01:01:51;;;;;;;17.43;10.63;;;;;;;;;;5005148;28;20183;-67
2023/11/22 01:04:16;;;;;;;17.17;9.97;;;;;;;;;;5004540;28;20265;-68
2023/11/22 01:06:42;;;;;;;20.00;10.50;;;;;;;;;;5000770;28;20592;-67
2023/11/22 01:09:08;;;;;;;18.67;9.37;;;;;;;;;;5003084;28;20210;-67
2023/11/22 01:11:34;;;;;;;20.37;9.70;;;;;;;;;;5003929;28;20262;-67
2023/11/22 01:13:59;;;;;;;21.23;10.67;;;;;;;;;;5007969;28;20305;-67
2023/11/22 01:16:24;;;;;;;11.83;8.13;;;;;;;;;;5010480;28;20183;-66
2023/11/22 01:18:49;;;;;;;17.80;9.90;;;;;;;;;;5006848;28;20218;-67
2023/11/22 01:21:15;;;;;;;17.67;10.30;;;;;;;;;;4997763;28;20237;-68
2023/11/22 01:23:40;;;;;;;16.63;10.43;;;;;;;;;;5008304;28;20207;-67
2023/11/22 01:26:05;;;;;;;20.77;11.50;;;;;;;;;;5010920;28;20183;-68
2023/11/22 01:28:34;;;;;;;20.27;10.83;;;;;;;;;;5011763;28;20230;-67
2023/11/22 01:30:59;;;;;;;19.33;11.17;;;;;;;;;;5011365;28;20186;-67
2023/11/22 01:33:24;;;;;;;18.43;11.10;;;;;;;;;;5010302;28;20647;-67
2023/11/22 01:35:52;;;;;;;17.17;9.57;;;;;;;;;;5012260;28;20225;-66
2023/11/22 01:38:17;;;;;;;21.07;9.07;;;;;;;;;;4993724;28;20184;-66
2023/11/22 01:40:44;;;;;;;16.03;9.33;;;;;;;;;;4984433;28;20208;-67
2023/11/22 01:43:12;;;;;;;19.70;10.73;;;;;;;;;;5007961;28;20238;-66
2023/11/22 01:45:38;;;;;;;18.37;10.67;;;;;;;;;;5008119;28;20175;-67
2023/11/22 01:48:03;;;;;;;19.27;10.73;;;;;;;;;;5006353;28;20733;-67
2023/11/22 01:50:28;;;;;;;17.90;11.03;;;;;;;;;;5009725;28;20267;-67
2023/11/22 01:52:54;;;;;;;18.73;10.70;;;;;;;;;;5010254;28;20171;-67
2023/11/22 01:55:19;;;;;;;19.90;10.27;;;;;;;;;;5000872;28;22114;-67
2023/11/22 01:57:44;;;;;;;19.97;10.40;;;;;;;;;;4993320;28;20646;-67
2023/11/22 02:00:14;;;;;;;16.00;9.73;;;;;;;;;;5007124;28;20179;-67
2023/11/22 02:02:39;;;;;;;15.80;9.57;;;;;;;;;;5007012;28;20560;-67
2023/11/22 02:05:04;;;;;;;18.20;10.33;;;;;;;;;;5009230;28;20203;-67
2023/11/22 02:07:31;;;;;;;18.20;9.67;;;;;;;;;;5008614;28;20704;-67
2023/11/22 02:09:57;;;;;;;16.23;8.87;;;;;;;;;;4998488;28;20186;-67
2023/11/22 02:12:23;;;;;;;17.33;9.53;;;;;;;;;;5008306;28;20215;-67
2023/11/22 02:14:49;;;;;;;22.53;10.67;;;;;;;;;;5009326;28;20227;-67
2023/11/22 02:17:15;;;;;;;15.73;9.67;;;;;;;;;;5005032;28;20197;-67
2023/11/22 02:19:40;;;;;;;16.97;9.93;;;;;;;;;;5007381;28;20191;-67
2023/11/22 02:22:06;;;;;;;16.73;10.27;;;;;;;;;;5007168;28;20559;-67
2023/11/22 02:24:33;;;;;;;17.73;9.57;;;;;;;;;;5009339;28;20221;-67
2023/11/22 02:26:58;;;;;;;17.00;9.90;;;;;;;;;;5012988;28;20179;-67
2023/11/22 02:29:23;;;;;;;19.53;9.93;;;;;;;;;;5011760;28;20186;-67
2023/11/22 02:31:48;;;;;;;17.90;10.10;;;;;;;;;;5006804;28;20179;-68
2023/11/22 02:34:15;;;;;;;20.33;11.27;;;;;;;;;;5006818;28;20768;-67
2023/11/22 02:36:43;;;;;;;21.63;10.37;;;;;;;;;;4993255;28;20642;-67
2023/11/22 02:39:08;;;;;;;20.70;10.43;;;;;;;;;;5009248;28;20225;-66
2023/11/22 02:41:34;;;;;;;18.93;10.20;;;;;;;;;;5012724;28;20612;-67
2023/11/22 02:43:59;;;;;;;17.20;10.20;;;;;;;;;;5008353;28;20218;-68
2023/11/22 02:46:26;;;;;;;19.13;9.90;;;;;;;;;;5001083;28;20221;-68
2023/11/22 02:48:51;;;;;;;16.73;9.67;;;;;;;;;;4994271;28;20655;-68
2023/11/22 02:51:16;;;;;;;20.67;10.67;;;;;;;;;;5009986;28;20185;-68
2023/11/22 02:53:43;;;;;;;19.37;10.83;;;;;;;;;;4993823;28;20209;-68
2023/11/22 02:56:09;;;;;;;18.10;10.47;;;;;;;;;;5007743;28;20191;-68
2023/11/22 02:58:34;;;;;;;17.97;10.90;;;;;;;;;;5008985;28;20191;-68
2023/11/22 03:00:59;;;;;;;18.47;10.90;;;;;;;;;;5008241;28;20721;-68
2023/11/22 03:03:24;;;;;;;23.10;11.80;;;;;;;;;;5006572;28;20264;-68
2023/11/22 03:05:50;;;;;;;20.67;11.23;;;;;;;;;;5009677;28;20202;-68
2023/11/22 03:08:16;;;;;;;19.97;11.17;;;;;;;;;;5009022;28;20190;-68
2023/11/22 03:10:41;;;;;;;19.90;10.83;;;;;;;;;;4994096;28;20214;-68
2023/11/22 03:13:08;;;;;;;19.37;10.77;;;;;;;;;;5008606;28;20250;-68
2023/11/22 03:15:33;;;;;;;21.90;10.40;;;;;;;;;;5008013;28;20194;-68
2023/11/22 03:17:59;;;;;;;18.00;10.43;;;;;;;;;;5006493;28;20182;-68
2023/11/22 03:20:24;;;;;;;20.70;10.63;;;;;;;;;;5007554;28;20674;-68
2023/11/22 03:22:50;;;;;;;19.13;10.70;;;;;;;;;;5007791;28;20223;-68
2023/11/22 03:25:15;;;;;;;24.00;10.97;;;;;;;;;;5005722;28;20643;-68
2023/11/22 03:27:41;;;;;;;18.37;10.27;;;;;;;;;;5010233;28;20189;-68
2023/11/22 03:30:10;;;;;;;23.77;11.87;;;;;;;;;;5009883;28;20175;-68
2023/11/22 03:32:38;;;;;;;25.70;11.10;;;;;;;;;;4993645;28;20183;-68
2023/11/22 03:35:05;;;;;;;24.60;11.80;;;;;;;;;;4996262;28;20199;-68
2023/11/22 03:37:30;;;;;;;25.30;13.87;;;;;;;;;;5006442;28;20183;-68
2023/11/22 03:39:55;;;;;;;23.97;12.37;;;;;;;;;;5009276;28;20224;-68
2023/11/22 03:42:20;;;;;;;27.50;12.50;;;;;;;;;;5011750;28;20508;-68
2023/11/22 03:44:46;;;;;;;27.27;12.33;;;;;;;;;;5004289;28;20289;-68
2023/11/22 03:47:14;;;;;;;24.13;12.23;;;;;;;;;;5007992;28;20278;-68
2023/11/22 03:49:39;;;;;;;24.57;12.47;;;;;;;;;;5008153;28;20179;-68
2023/11/22 03:52:05;;;;;;;25.33;12.43;;;;;;;;;;5009106;28;20506;-67
2023/11/22 03:54:32;;;;;;;30.00;11.63;;;;;;;;;;5008178;28;20211;-68
2023/11/22 03:56:57;;;;;;;22.90;12.17;;;;;;;;;;5011289;28;20204;-68
2023/11/22 03:59:24;;;;;;;22.73;10.77;;;;;;;;;;5006739;28;20733;-68
2023/11/22 04:01:49;;;;;;;19.70;11.80;;;;;;;;;;5013960;28;20179;-68
2023/11/22 04:04:14;;;;;;;21.53;12.40;;;;;;;;;;5012194;28;20709;-68
2023/11/22 04:06:40;;;;;;;22.07;11.97;;;;;;;;;;5012873;28;20187;-68
2023/11/22 04:09:05;;;;;;;22.40;11.53;;;;;;;;;;5011694;28;20306;-68
2023/11/22 04:11:30;;;;;;;24.27;12.20;;;;;;;;;;5011189;28;20696;-68
2023/11/22 04:13:56;;;;;;;22.60;11.80;;;;;;;;;;5011763;28;20237;-68
2023/11/22 04:16:21;;;;;;;23.43;11.43;;;;;;;;;;5005600;28;20243;-68
2023/11/22 04:18:46;;;;;;;23.33;12.33;;;;;;;;;;5011531;28;20194;-67
2023/11/22 04:21:12;;;;;;;25.47;12.00;;;;;;;;;;5011693;28;20220;-68
2023/11/22 04:23:37;;;;;;;21.60;12.20;;;;;;;;;;5012379;28;20214;-68
2023/11/22 04:26:02;;;;;;;23.23;11.30;;;;;;;;;;5003726;28;20190;-68
2023/11/22 04:28:29;;;;;;;24.03;12.33;;;;;;;;;;5010968;28;20171;-68
2023/11/22 04:30:54;;;;;;;25.87;12.33;;;;;;;;;;5003175;28;20253;-68
2023/11/22 04:33:23;;;;;;;21.70;12.40;;;;;;;;;;5010504;28;20310;-68
2023/11/22 04:35:48;;;;;;;25.30;12.40;;;;;;;;;;5008612;28;20180;-68
2023/11/22 04:38:14;;;;;;;24.57;11.67;;;;;;;;;;5011912;28;20681;-68
2023/11/22 04:40:39;;;;;;;22.53;11.57;;;;;;;;;;5010782;28;20190;-68
2023/11/22 04:43:04;;;;;;;23.67;12.90;;;;;;;;;;5010898;28;20217;-68
2023/11/22 04:45:29;;;;;;;21.80;11.87;;;;;;;;;;5009384;28;20590;-68
2023/11/22 04:47:57;;;;;;;21.50;12.37;;;;;;;;;;5011656;28;20199;-69
2023/11/22 04:50:24;;;;;;;23.00;13.00;;;;;;;;;;5010431;28;20217;-68
2023/11/22 04:52:49;;;;;;;18.03;11.03;;;;;;;;;;5014575;28;20562;-68
2023/11/22 04:55:14;;;;;;;24.97;11.87;;;;;;;;;;5011084;28;20182;-69
2023/11/22 04:57:39;;;;;;;19.87;11.53;;;;;;;;;;5015047;28;20202;-68
2023/11/22 05:00:07;;;;;;;22.03;11.30;;;;;;;;;;5008913;28;20181;-68
2023/11/22 05:02:32;;;;;;;23.97;13.07;;;;;;;;;;5010733;28;20175;-67
2023/11/22 05:04:57;;;;;;;21.57;11.83;;;;;;;;;;5011177;28;20245;-67
2023/11/22 05:07:22;;;;;;;22.77;12.00;;;;;;;;;;5008282;28;20595;-67
2023/11/22 05:09:48;;;;;;;22.20;11.77;;;;;;;;;;5009812;28;20198;-67
2023/11/22 05:12:14;;;;;;;18.10;10.97;;;;;;;;;;4998545;28;20189;-67
2023/11/22 05:14:39;;;;;;;23.87;12.20;;;;;;;;;;5013638;28;20214;-68
2023/11/22 05:17:04;;;;;;;26.80;12.37;;;;;;;;;;5010739;28;20627;-67
2023/11/22 05:19:30;;;;;;;26.20;12.53;;;;;;;;;;5010547;28;20183;-67
2023/11/22 05:21:55;;;;;;;22.60;12.63;;;;;;;;;;5012061;28;20183;-67
2023/11/22 05:24:20;;;;;;;23.03;12.30;;;;;;;;;;5017454;28;20207;-67
2023/11/22 05:26:45;;;;;;;23.67;11.97;;;;;;;;;;5011113;28;20302;-67
2023/11/22 05:29:10;;;;;;;22.97;11.80;;;;;;;;;;5010006;28;20183;-67
2023/11/22 05:31:37;;;;;;;26.47;12.47;;;;;;;;;;5006711;28;20223;-67
2023/11/22 05:34:02;;;;;;;22.83;10.47;;;;;;;;;;5010706;28;20212;-67
2023/11/22 05:36:27;;;;;;;22.73;12.23;;;;;;;;;;5009135;28;20179;-67
2023/11/22 05:38:53;;;;;;;22.43;12.43;;;;;;;;;;5009565;28;20183;-68
2023/11/22 05:41:18;;;;;;;22.90;11.30;;;;;;;;;;5016271;28;20977;-67
2023/11/22 05:43:43;;;;;;;22.83;12.50;;;;;;;;;;5010354;28;20273;-68
2023/11/22 05:46:08;;;;;;;21.43;11.63;;;;;;;;;;5006774;28;20186;-67
2023/11/22 05:48:34;;;;;;;23.87;12.50;;;;;;;;;;5013017;28;20668;-67
2023/11/22 05:50:59;;;;;;;25.10;11.93;;;;;;;;;;5011782;28;20700;-67
2023/11/22 05:53:24;;;;;;;22.43;13.10;;;;;;;;;;5004019;28;20234;-67
2023/11/22 05:55:50;;;;;;;23.30;12.73;;;;;;;;;;5011901;28;20191;-67
2023/11/22 05:58:18;;;;;;;21.97;11.67;;;;;;;;;;5012410;28;20592;-66
2023/11/22 06:00:46;;;;;;;24.27;11.67;;;;;;;;;;5009382;28;20272;-67
2023/11/22 06:03:12;;;;;;;23.60;11.93;;;;;;;;;;5013079;28;20727;-67
2023/11/22 06:05:38;;;;;;;22.60;11.73;;;;;;;;;;5013092;28;20225;-67
2023/11/22 06:08:03;;;;;;;21.77;11.50;;;;;;;;;;5009236;28;20210;-67
2023/11/22 06:10:28;;;;;;;24.23;12.10;;;;;;;;;;5007921;28;20179;-67
2023/11/22 06:12:53;;;;;;;23.57;12.10;;;;;;;;;;4993914;28;20285;-67
2023/11/22 06:15:22;;;;;;;22.47;11.33;;;;;;;;;;5008249;28;20175;-67
2023/11/22 06:17:48;;;;;;;22.77;11.53;;;;;;;;;;5011735;28;20191;-67
2023/11/22 06:20:13;;;;;;;24.20;13.47;;;;;;;;;;5010896;28;20175;-68
2023/11/22 06:22:41;;;;;;;24.87;11.67;;;;;;;;;;5002515;28;20182;-67
2023/11/22 06:25:08;;;;;;;21.97;11.73;;;;;;;;;;5011014;28;20594;-67
2023/11/22 06:27:33;;;;;;;22.93;11.27;;;;;;;;;;5020125;28;20170;-67
2023/11/22 06:29:58;;;;;;;18.00;10.90;;;;;;;;;;5012533;28;20773;-67
2023/11/22 06:32:24;;;;;;;23.70;12.23;;;;;;;;;;5007909;28;20190;-67
2023/11/22 06:34:49;;;;;;;21.80;11.33;;;;;;;;;;5007912;28;20203;-67
2023/11/22 06:37:14;;;;;;;24.33;12.03;;;;;;;;;;5010202;28;20265;-67
2023/11/22 06:39:39;;;;;;;21.30;11.77;;;;;;;;;;5012925;28;20561;-68
2023/11/22 06:42:06;;;;;;;22.60;11.53;;;;;;;;;;4997764;28;20186;-67
2023/11/22 06:44:31;;;;;;;26.40;13.10;;;;;;;;;;4991662;28;20198;-68
2023/11/22 06:46:56;;;;;;;25.70;13.10;;;;;;;;;;5012949;28;20691;-67
2023/11/22 06:49:22;;;;;;;23.57;12.73;;;;;;;;;;4993018;28;20183;-67
2023/11/22 06:51:47;;;;;;;22.43;12.57;;;;;;;;;;5010401;28;20241;-67
2023/11/22 06:54:12;;;;;;;25.90;12.10;;;;;;;;;;5010433;28;20732;-68
2023/11/22 06:56:37;;;;;;;26.83;11.83;;;;;;;;;;5010375;28;20596;-67
2023/11/22 06:59:03;;;;;;;22.03;11.03;;;;;;;;;;5010359;28;20201;-67
2023/11/22 07:01:28;;;;;;;23.90;12.20;;;;;;;;;;4989357;28;20206;-67
2023/11/22 07:03:53;;;;;;;24.43;12.53;;;;;;;;;;4993050;28;20206;-67
2023/11/22 07:06:19;;;;;;;24.67;12.03;;;;;;;;;;5010734;28;20199;-67
2023/11/22 07:08:44;;;;;;;22.27;11.73;;;;;;;;;;5010495;28;20258;-66
2023/11/22 07:11:10;;;;;;;25.07;12.13;;;;;;;;;;5008640;28;20266;-67
2023/11/22 07:13:38;;;;;;;24.10;12.50;;;;;;;;;;5008284;28;20198;-67
2023/11/22 07:16:04;;;;;;;25.80;12.77;;;;;;;;;;5006565;28;20654;-67
2023/11/22 07:18:29;;;;;;;24.87;12.13;;;;;;;;;;4998332;28;20241;-67
2023/11/22 07:20:55;;;;;;;20.73;11.77;;;;;;;;;;5012621;28;20554;-67
2023/11/22 07:23:22;;;;;;;26.53;13.40;;;;;;;;;;5012344;28;20199;-67
2023/11/22 07:25:47;;;;;;;23.10;12.13;;;;;;;;;;5012872;28;20214;-67
2023/11/22 07:28:13;;;;;;;24.93;12.07;;;;;;;;;;5011648;28;20639;-67
2023/11/22 07:30:41;;;;;;;26.13;13.47;;;;;;;;;;5011715;28;20171;-68
2023/11/22 07:33:06;;;;;;;20.00;11.60;;;;;;;;;;5008139;28;20199;-67
2023/11/22 07:35:31;;;;;;;19.83;11.60;;;;;;;;;;5014623;28;20258;-67
2023/11/22 07:37:57;;;;;;;21.17;11.27;;;;;;;;;;4998420;28;20605;-68
2023/11/22 07:40:23;;;;;;;24.87;12.60;;;;;;;;;;4998494;28;20172;-67
2023/11/22 07:42:48;;;;;;;25.47;12.00;;;;;;;;;;5013985;28;20626;-67
2023/11/22 07:45:13;;;;;;;22.93;12.00;;;;;;;;;;5006431;28;20202;-68
2023/11/22 07:47:43;;;;;;;20.63;11.47;;;;;;;;;;5009314;28;20655;-67
2023/11/22 07:50:08;;;;;;;23.57;12.43;;;;;;;;;;5013140;28;20171;-67
2023/11/22 07:52:33;;;;;;;27.80;12.27;;;;;;;;;;5010440;28;20190;-67
2023/11/22 07:54:59;;;;;;;24.97;13.30;;;;;;;;;;5005136;28;20659;-67
2023/11/22 07:57:25;;;;;;;20.40;11.33;;;;;;;;;;5009708;28;20186;-67
2023/11/22 07:59:52;;;;;;;26.23;12.80;;;;;;;;;;5010904;28;20187;-67
2023/11/22 08:02:18;;;;;;;27.90;11.80;;;;;;;;;;5014130;28;20187;-67
2023/11/22 08:04:45;;;;;;;24.20;12.50;;;;;;;;;;5013742;28;20261;-67
2023/11/22 08:07:11;;;;;;;22.97;12.00;;;;;;;;;;4996054;28;20202;-67
2023/11/22 08:09:38;;;;;;;24.67;12.93;;;;;;;;;;5013930;28;20223;-67
2023/11/22 08:12:03;;;;;;;22.00;11.57;;;;;;;;;;4996335;28;20268;-68
2023/11/22 08:14:28;;;;;;;23.23;12.63;;;;;;;;;;5013633;28;20222;-67
2023/11/22 08:16:54;;;;;;;23.33;13.00;;;;;;;;;;5006747;28;20206;-67
2023/11/22 08:19:19;;;;;;;27.47;13.83;;;;;;;;;;5008968;28;20171;-67
2023/11/22 08:21:44;;;;;;;25.93;13.20;;;;;;;;;;5013403;28;20171;-67
2023/11/22 08:24:12;;;;;;;22.40;12.47;;;;;;;;;;5014489;28;20748;-68
2023/11/22 08:26:37;;;;;;;22.73;12.37;;;;;;;;;;5013831;28;20634;-67
2023/11/22 08:29:04;;;;;;;25.57;13.87;;;;;;;;;;5009858;28;20175;-67
2023/11/22 08:31:29;;;;;;;24.10;13.50;;;;;;;;;;5009956;28;20733;-67
2023/11/22 08:33:54;;;;;;;26.63;13.73;;;;;;;;;;5020079;28;20282;-67
2023/11/22 08:36:19;;;;;;;27.57;14.20;;;;;;;;;;5018315;28;20608;-67
2023/11/22 08:38:45;;;;;;;23.13;12.27;;;;;;;;;;5013265;28;20187;-67
2023/11/22 08:41:13;;;;;;;27.73;13.80;;;;;;;;;;5012045;28;20202;-68
2023/11/22 08:43:38;;;;;;;26.40;12.50;;;;;;;;;;4997886;28;21888;-68
2023/11/22 08:46:07;;;;;;;25.60;13.43;;;;;;;;;;4993281;28;20188;-67
2023/11/22 08:48:33;;;;;;;33.87;15.23;;;;;;;;;;5006502;28;20232;-68
2023/11/22 08:50:58;;;;;;;22.03;12.83;;;;;;;;;;4994217;28;20186;-67
2023/11/22 08:53:24;;;;;;;26.53;13.40;;;;;;;;;;5015807;28;20202;-67
2023/11/22 08:55:49;;;;;;;25.67;13.40;;;;;;;;;;5014792;28;20183;-67
2023/11/22 08:58:14;;;;;;;21.80;12.87;;;;;;;;;;5013616;28;20183;-67
2023/11/22 09:00:41;;;;;;;26.03;13.23;;;;;;;;;;4999160;28;20183;-67
2023/11/22 09:03:07;;;;;;;25.23;12.67;;;;;;;;;;5014397;28;20806;-67
2023/11/22 09:05:32;;;;;;;23.90;12.83;;;;;;;;;;4998802;28;20186;-66
2023/11/22 09:07:58;;;;;;;21.57;12.37;;;;;;;;;;5008044;28;20194;-68
2023/11/22 09:10:24;;;;;;;26.73;14.10;;;;;;;;;;4997604;28;20624;-67
2023/11/22 09:12:49;;;;;;;22.30;12.50;;;;;;;;;;5012366;28;20258;-67
2023/11/22 09:15:18;;;;;;;22.13;12.20;;;;;;;;;;4997899;28;20186;-67
2023/11/22 09:17:44;;;;;;;23.50;12.60;;;;;;;;;;5012503;28;20241;-67
2023/11/22 09:20:11;;;;;;;25.27;12.90;;;;;;;;;;4996772;28;20322;-68
2023/11/22 09:22:39;;;;;;;25.87;13.37;;;;;;;;;;5011346;28;20225;-67
2023/11/22 09:25:08;;;;;;;25.70;13.07;;;;;;;;;;4995192;28;20250;-67
2023/11/22 09:27:33;;;;;;;23.40;13.00;;;;;;;;;;5010118;28;20618;-67
2023/11/22 09:29:59;;;;;;;21.07;12.53;;;;;;;;;;5005028;28;20187;-67
2023/11/22 09:32:24;;;;;;;21.93;12.53;;;;;;;;;;5014438;28;20183;-67
2023/11/22 09:34:50;;;;;;;20.03;12.23;;;;;;;;;;5002365;28;20345;-67
2023/11/22 09:37:15;;;;;;;23.77;12.43;;;;;;;;;;5011162;28;20183;-67
2023/11/22 09:39:40;;;;;;;21.27;12.27;;;;;;;;;;5012222;28;20189;-67
2023/11/22 09:42:05;;;;;;;24.60;12.83;;;;;;;;;;5019016;28;20650;-67
2023/11/22 09:44:30;;;;;;;22.07;12.10;;;;;;;;;;5010539;28;20235;-68
2023/11/22 09:46:56;;;;;;;21.00;12.13;;;;;;;;;;5002902;28;20203;-67
2023/11/22 09:49:24;;;;;;;24.03;13.17;;;;;;;;;;5001939;28;20180;-68
2023/11/22 09:51:51;;;;;;;21.67;13.13;;;;;;;;;;5007990;28;20562;-67
2023/11/22 09:54:18;;;;;;;23.37;12.60;;;;;;;;;;5011908;28;20199;-68
2023/11/22 09:56:50;;;;;;;18.13;11.77;;;;;;;;;;5011995;28;20208;-66
2023/11/22 09:59:16;;;;;;;20.53;11.50;;;;;;;;;;5002282;28;20278;-67
2023/11/22 10:01:42;;;;;;;22.67;11.53;;;;;;;;;;5013361;28;20171;-67
2023/11/22 10:04:07;;;;;;;18.77;11.13;;;;;;;;;;5011902;28;20716;-67
2023/11/22 10:06:34;;;;;;;21.47;10.90;;;;;;;;;;5013111;28;20167;-67
2023/11/22 10:09:00;;;;;;;20.47;11.43;;;;;;;;;;5005975;28;20245;-67
2023/11/22 10:11:26;;;;;;;20.60;11.80;;;;;;;;;;5007811;28;20183;-68
2023/11/22 10:13:51;;;;;;;19.27;11.10;;;;;;;;;;5011940;28;20210;-68
2023/11/22 10:16:18;;;;;;;18.47;10.93;;;;;;;;;;5000583;28;20571;-67
2023/11/22 10:18:44;;;;;;;17.00;10.53;;;;;;;;;;5016766;28;20175;-67
2023/11/22 10:21:18;;;;;;;19.30;11.47;;;;;;;;;;5015062;28;20205;-67
2023/11/22 10:23:44;;;;;;;20.53;12.13;;;;;;;;;;5013231;28;20298;-67
2023/11/22 10:26:09;;;;;;;19.87;11.70;;;;;;;;;;5013803;28;20274;-67
2023/11/22 10:28:34;;;;;;;20.00;11.70;;;;;;;;;;5013324;28;20199;-67
2023/11/22 10:30:59;;;;;;;23.30;11.63;;;;;;;;;;5014766;28;20253;-67
2023/11/22 10:33:25;;;;;;;22.83;11.93;;;;;;;;;;5012547;28;20202;-67
2023/11/22 10:35:51;;;;;;;21.40;11.17;;;;;;;;;;5016935;28;20242;-67
2023/11/22 10:38:16;;;;;;;17.17;10.70;;;;;;;;;;5013814;28;20681;-67
2023/11/22 10:40:44;;;;;;;17.67;10.90;;;;;;;;;;5014351;28;20189;-68
2023/11/22 10:43:10;;;;;;;17.97;10.37;;;;;;;;;;5011208;28;20209;-67
2023/11/22 10:45:37;;;;;;;18.93;11.00;;;;;;;;;;5007641;28;20179;-66
2023/11/22 10:48:02;;;;;;;20.20;11.03;;;;;;;;;;5003043;28;20341;-67
2023/11/22 10:50:28;;;;;;;16.37;9.70;;;;;;;;;;5017284;28;20690;-67
2023/11/22 10:52:56;;;;;;;18.67;11.20;;;;;;;;;;5000909;28;20310;-67
2023/11/22 10:55:24;;;;;;;18.13;10.73;;;;;;;;;;4998021;28;20182;-67
2023/11/22 10:57:51;;;;;;;17.10;10.40;;;;;;;;;;5016439;28;20261;-66
2023/11/22 11:00:19;;;;;;;17.47;11.10;;;;;;;;;;4997139;28;20179;-66
2023/11/22 11:02:49;;;;;;;21.33;12.20;;;;;;;;;;5011689;28;20179;-66
2023/11/22 11:05:27;;;;;;;20.00;10.97;;;;;;;;;;5004267;28;20257;-66
2023/11/22 11:07:56;;;;;;;18.93;11.27;;;;;;;;;;5013482;28;20173;-66
2023/11/22 11:10:22;;;;;;;17.10;10.67;;;;;;;;;;5016361;28;20887;-66
2023/11/22 11:12:47;;;;;;;17.93;10.27;;;;;;;;;;5005665;28;20718;-67
2023/11/22 11:15:13;;;;;;;18.87;10.77;;;;;;;;;;5009948;28;20185;-67
2023/11/22 11:17:39;;;;;;;16.40;10.50;;;;;;;;;;5019232;28;20434;-68
2023/11/22 11:20:06;;;;;;;22.10;11.23;;;;;;;;;;5007053;28;20659;-67
2023/11/22 11:22:32;;;;;;;17.23;9.93;;;;;;;;;;5004262;28;20662;-67
2023/11/22 11:25:02;;;;;;;17.17;10.90;;;;;;;;;;5021813;28;20449;-67
2023/11/22 11:27:28;;;;;;;14.87;9.37;;;;;;;;;;5019449;28;20262;-67
2023/11/22 11:29:53;;;;;;;15.73;10.53;;;;;;;;;;5015600;28;20314;-67
2023/11/22 11:32:34;;;;;;;19.07;10.17;;;;;;;;;;5019967;28;20584;-67
2023/11/22 11:35:00;;;;;;;16.00;9.37;;;;;;;;;;5019334;28;20198;-68
2023/11/22 11:37:29;;;;;;;20.03;10.90;;;;;;;;;;5026208;28;20578;-67
2023/11/22 11:39:54;;;;;;;16.40;10.20;;;;;;;;;;5010058;28;20187;-67
2023/11/22 11:42:19;;;;;;;16.83;9.97;;;;;;;;;;5015799;28;20197;-67
2023/11/22 11:45:02;;;;;;;18.80;11.33;;;;;;;;;;5010550;28;20601;-67
2023/11/22 11:47:27;;;;;;;18.13;11.27;;;;;;;;;;5008493;28;20666;-67
2023/11/22 11:49:52;;;;;;;19.17;11.20;;;;;;;;;;5013954;28;20182;-67
2023/11/22 11:52:17;;;;;;;18.97;11.13;;;;;;;;;;5022220;28;20170;-67
2023/11/22 11:54:43;;;;;;;17.23;10.20;;;;;;;;;;5021314;28;20197;-67
2023/11/22 11:57:08;;;;;;;17.20;11.00;;;;;;;;;;5022514;28;20174;-67
2023/11/22 11:59:35;;;;;;;17.33;11.47;;;;;;;;;;5020304;28;20194;-67
2023/11/22 12:02:00;;;;;;;18.60;12.17;;;;;;;;;;5009797;28;20911;-67
2023/11/22 12:04:26;;;;;;;21.87;12.30;;;;;;;;;;5016253;28;20197;-67
2023/11/22 12:06:51;;;;;;;19.83;11.23;;;;;;;;;;5020602;28;20175;-67
2023/11/22 12:09:26;;;;;;;20.10;12.27;;;;;;;;;;5015825;28;20616;-67
2023/11/22 12:11:53;;;;;;;22.40;12.70;;;;;;;;;;5015993;28;20599;-67
2023/11/22 12:14:18;;;;;;;22.20;13.67;;;;;;;;;;5001214;28;20198;-67
2023/11/22 12:16:47;;;;;;;20.80;12.83;;;;;;;;;;5013439;28;20181;-67
2023/11/22 12:19:20;;;;;;;19.80;12.37;;;;;;;;;;5017810;28;20187;-67
2023/11/22 12:21:45;;;;;;;23.13;13.73;;;;;;;;;;5017378;28;20210;-66
2023/11/22 12:24:10;;;;;;;21.90;12.00;;;;;;;;;;5014130;28;20234;-68
2023/11/22 12:26:39;;;;;;;21.77;13.80;;;;;;;;;;5015259;28;20266;-68
2023/11/22 12:29:08;;;;;;;21.37;13.20;;;;;;;;;;5020215;28;20183;-68
2023/11/22 12:31:34;;;;;;;20.00;12.97;;;;;;;;;;5014873;28;20185;-68
2023/11/22 12:33:59;;;;;;;22.23;12.73;;;;;;;;;;5018358;28;20591;-67
2023/11/22 12:36:24;;;;;;;23.57;15.07;;;;;;;;;;5017974;28;20175;-67
2023/11/22 12:38:49;;;;;;;21.93;13.33;;;;;;;;;;5012741;28;20175;-67
2023/11/22 12:41:15;;;;;;;24.33;13.50;;;;;;;;;;5013557;28;20223;-67
2023/11/22 12:43:40;;;;;;;21.77;13.13;;;;;;;;;;5015891;28;20218;-67
2023/11/22 12:46:06;;;;;;;22.97;13.87;;;;;;;;;;4995228;28;20174;-67
2023/11/22 12:48:32;;;;;;;26.77;14.30;;;;;;;;;;5017051;28;20209;-68
2023/11/22 12:50:58;;;;;;;25.27;14.37;;;;;;;;;;5013567;28;20436;-68
2023/11/22 12:53:30;;;;;;;25.87;15.37;;;;;;;;;;5012872;28;20203;-67
2023/11/22 12:55:56;;;;;;;27.43;15.23;;;;;;;;;;5013619;28;20182;-67
2023/11/22 12:58:24;;;;;;;24.63;13.97;;;;;;;;;;5016964;28;20204;-67
2023/11/22 13:00:51;;;;;;;29.43;16.03;;;;;;;;;;5013221;28;20178;-68
2023/11/22 13:03:16;;;;;;;26.47;15.30;;;;;;;;;;5012712;28;20198;-68
2023/11/22 13:05:45;;;;;;;25.73;14.57;;;;;;;;;;5013733;28;20527;-68
2023/11/22 13:08:12;;;;;;;22.83;13.13;;;;;;;;;;5009185;28;20183;-67
2023/11/22 13:10:38;;;;;;;26.53;14.70;;;;;;;;;;5007206;28;20172;-68
2023/11/22 13:13:03;;;;;;;27.83;14.53;;;;;;;;;;5015261;28;20214;-68
2023/11/22 13:15:29;;;;;;;24.17;12.43;;;;;;;;;;5012801;28;20191;-68
2023/11/22 13:17:55;;;;;;;27.57;13.07;;;;;;;;;;5020289;28;20174;-68
2023/11/22 13:20:25;;;;;;;23.17;13.70;;;;;;;;;;5002048;28;20298;-68
2023/11/22 13:22:50;;;;;;;19.97;11.17;;;;;;;;;;5014140;28;20171;-68
2023/11/22 13:25:19;;;;;;;19.17;11.23;;;;;;;;;;5016898;28;20561;-67
2023/11/22 13:27:48;;;;;;;15.40;9.80;;;;;;;;;;4988658;28;20176;-67
2023/11/22 13:30:14;;;;;;;16.93;9.83;;;;;;;;;;5011676;28;20241;-68
2023/11/22 13:32:41;;;;;;;13.87;8.97;;;;;;;;;;5015991;28;20182;-68
2023/11/22 13:35:12;;;;;;;16.60;9.97;;;;;;;;;;5014531;28;20714;-68
2023/11/22 13:37:37;;;;;;;15.10;9.57;;;;;;;;;;5018673;28;20198;-68
2023/11/22 13:40:03;;;;;;;16.70;10.43;;;;;;;;;;5015506;28;20174;-67
2023/11/22 13:42:28;;;;;;;14.67;9.40;;;;;;;;;;5004653;28;20532;-68
2023/11/22 13:44:53;;;;;;;15.87;10.03;;;;;;;;;;5008292;28;20293;-67
2023/11/22 13:47:18;;;;;;;18.40;10.03;;;;;;;;;;5003847;28;20186;-68
2023/11/22 13:49:43;;;;;;;14.93;9.77;;;;;;;;;;5011944;28;20716;-67
2023/11/22 13:52:09;;;;;;;17.27;9.67;;;;;;;;;;5015581;28;20187;-68
2023/11/22 13:54:37;;;;;;;16.10;9.10;;;;;;;;;;5005110;28;20199;-67
2023/11/22 13:57:03;;;;;;;14.87;9.53;;;;;;;;;;5012648;28;20186;-68
2023/11/22 13:59:29;;;;;;;14.83;9.07;;;;;;;;;;5012210;28;20175;-68
2023/11/22 14:01:54;;;;;;;15.87;9.87;;;;;;;;;;5004302;28;20179;-68
2023/11/22 14:04:19;;;;;;;17.57;9.90;;;;;;;;;;5001612;28;20199;-67
2023/11/22 14:06:45;;;;;;;15.57;10.20;;;;;;;;;;5007174;28;20194;-68
2023/11/22 14:09:12;;;;;;;15.90;9.97;;;;;;;;;;5012068;28;20187;-68
2023/11/22 14:11:37;;;;;;;17.17;9.57;;;;;;;;;;4996360;28;20321;-68